sensor_id;sensor_type;location;lat;lon;timestamp;temperature;humidity
981;DHT22;479;53.514;9.994;2022-11-20T00:01:06;3.40;99.90
981;DHT22;479;53.514;9.994;2022-11-20T00:03:33;3.40;99.90
981;DHT22;479;53.514;9.994;2022-11-20T00:06:01;3.30;99.90
981;DHT22;479;53.514;9.994;2022-11-20T00:08:27;3.20;99.90
981;DHT22;479;53.514;9.994;2022-11-20T00:10:56;3.10;99.90
981;DHT22;479;53.514;9.994;2022-11-20T00:13:22;3.10;99.90
981;DHT22;479;53.514;9.994;2022-11-20T00:15:56;3.30;99.90
981;DHT22;479;53.514;9.994;2022-11-20T00:18:23;3.20;99.90
981;DHT22;479;53.514;9.994;2022-11-20T00:20:50;3.10;99.90
981;DHT22;479;53.514;9.994;2022-11-20T00:23:17;3.00;99.90
981;DHT22;479;53.514;9.994;2022-11-20T00:25:44;3.00;99.90
981;DHT22;479;53.514;9.994;2022-11-20T00:28:12;3.00;99.90
981;DHT22;479;53.514;9.994;2022-11-20T00:30:38;3.10;99.90
981;DHT22;479;53.514;9.994;2022-11-20T00:33:05;3.50;99.90
981;DHT22;479;53.514;9.994;2022-11-20T00:35:32;3.80;99.90
981;DHT22;479;53.514;9.994;2022-11-20T00:37:59;4.10;99.90
981;DHT22;479;53.514;9.994;2022-11-20T00:40:25;4.00;99.90
981;DHT22;479;53.514;9.994;2022-11-20T00:42:52;4.10;99.90
981;DHT22;479;53.514;9.994;2022-11-20T00:45:20;3.70;99.90
981;DHT22;479;53.514;9.994;2022-11-20T00:47:47;3.40;99.90
981;DHT22;479;53.514;9.994;2022-11-20T00:50:14;3.20;99.90
981;DHT22;479;53.514;9.994;2022-11-20T00:52:41;3.10;99.90
981;DHT22;479;53.514;9.994;2022-11-20T00:55:08;3.10;99.90
981;DHT22;479;53.514;9.994;2022-11-20T00:57:34;3.00;99.90
981;DHT22;479;53.514;9.994;2022-11-20T01:00:01;3.00;99.90
981;DHT22;479;53.514;9.994;2022-11-20T01:02:29;2.90;99.90
981;DHT22;479;53.514;9.994;2022-11-20T01:04:56;2.90;99.90
981;DHT22;479;53.514;9.994;2022-11-20T01:07:23;2.90;99.90
981;DHT22;479;53.514;9.994;2022-11-20T01:09:49;2.80;99.90
981;DHT22;479;53.514;9.994;2022-11-20T01:12:16;2.80;99.90
981;DHT22;479;53.514;9.994;2022-11-20T01:14:43;2.80;99.90
981;DHT22;479;53.514;9.994;2022-11-20T01:17:10;2.70;99.90
981;DHT22;479;53.514;9.994;2022-11-20T01:19:38;2.70;99.90
981;DHT22;479;53.514;9.994;2022-11-20T01:22:05;2.70;99.90
981;DHT22;479;53.514;9.994;2022-11-20T01:24:31;2.70;99.90
981;DHT22;479;53.514;9.994;2022-11-20T01:26:58;2.70;99.90
981;DHT22;479;53.514;9.994;2022-11-20T01:29:25;2.70;99.90
981;DHT22;479;53.514;9.994;2022-11-20T01:31:52;2.70;99.90
981;DHT22;479;53.514;9.994;2022-11-20T01:34:20;2.70;99.90
981;DHT22;479;53.514;9.994;2022-11-20T01:36:49;2.70;99.90
981;DHT22;479;53.514;9.994;2022-11-20T01:39:17;2.70;99.90
981;DHT22;479;53.514;9.994;2022-11-20T01:41:45;2.80;99.90
981;DHT22;479;53.514;9.994;2022-11-20T01:44:57;2.80;99.90
981;DHT22;479;53.514;9.994;2022-11-20T01:47:29;2.90;99.90
981;DHT22;479;53.514;9.994;2022-11-20T01:50:01;2.80;99.90
981;DHT22;479;53.514;9.994;2022-11-20T01:52:34;2.80;99.90
981;DHT22;479;53.514;9.994;2022-11-20T01:55:06;2.80;99.90
981;DHT22;479;53.514;9.994;2022-11-20T01:57:34;2.90;99.90
981;DHT22;479;53.514;9.994;2022-11-20T02:00:05;2.90;99.90
981;DHT22;479;53.514;9.994;2022-11-20T02:02:39;3.00;99.90
981;DHT22;479;53.514;9.994;2022-11-20T02:05:14;2.90;99.90
981;DHT22;479;53.514;9.994;2022-11-20T02:07:45;2.90;99.90
981;DHT22;479;53.514;9.994;2022-11-20T02:10:14;2.90;99.90
981;DHT22;479;53.514;9.994;2022-11-20T02:12:41;2.90;99.90
981;DHT22;479;53.514;9.994;2022-11-20T02:15:25;2.90;99.90
981;DHT22;479;53.514;9.994;2022-11-20T02:17:53;3.00;99.90
981;DHT22;479;53.514;9.994;2022-11-20T02:20:20;3.00;99.90
981;DHT22;479;53.514;9.994;2022-11-20T02:22:52;2.90;99.90
981;DHT22;479;53.514;9.994;2022-11-20T02:25:23;2.90;99.90
981;DHT22;479;53.514;9.994;2022-11-20T02:27:51;2.90;99.90
981;DHT22;479;53.514;9.994;2022-11-20T02:30:18;2.90;99.90
981;DHT22;479;53.514;9.994;2022-11-20T02:32:45;2.90;99.90
981;DHT22;479;53.514;9.994;2022-11-20T02:35:43;2.90;99.90
981;DHT22;479;53.514;9.994;2022-11-20T02:38:10;2.90;99.90
981;DHT22;479;53.514;9.994;2022-11-20T02:40:38;2.90;99.90
981;DHT22;479;53.514;9.994;2022-11-20T02:43:05;3.00;99.90
981;DHT22;479;53.514;9.994;2022-11-20T02:45:32;3.00;99.90
981;DHT22;479;53.514;9.994;2022-11-20T02:47:59;2.90;99.90
981;DHT22;479;53.514;9.994;2022-11-20T02:50:25;2.80;99.90
981;DHT22;479;53.514;9.994;2022-11-20T02:52:52;2.80;99.90
981;DHT22;479;53.514;9.994;2022-11-20T02:55:19;2.80;99.90
981;DHT22;479;53.514;9.994;2022-11-20T02:57:47;2.80;99.90
981;DHT22;479;53.514;9.994;2022-11-20T03:00:14;2.70;99.90
981;DHT22;479;53.514;9.994;2022-11-20T03:02:41;2.70;99.90
981;DHT22;479;53.514;9.994;2022-11-20T03:05:08;2.80;99.90
981;DHT22;479;53.514;9.994;2022-11-20T03:07:35;2.70;99.90
981;DHT22;479;53.514;9.994;2022-11-20T03:10:02;2.80;99.90
981;DHT22;479;53.514;9.994;2022-11-20T03:12:28;2.80;99.90
981;DHT22;479;53.514;9.994;2022-11-20T03:14:57;2.80;99.90
981;DHT22;479;53.514;9.994;2022-11-20T03:17:23;2.90;99.90
981;DHT22;479;53.514;9.994;2022-11-20T03:19:50;2.90;99.90
981;DHT22;479;53.514;9.994;2022-11-20T03:22:17;2.90;99.90
981;DHT22;479;53.514;9.994;2022-11-20T03:24:44;2.80;99.90
981;DHT22;479;53.514;9.994;2022-11-20T03:27:10;2.80;99.90
981;DHT22;479;53.514;9.994;2022-11-20T03:29:37;2.90;99.90
981;DHT22;479;53.514;9.994;2022-11-20T03:32:05;2.80;99.90
981;DHT22;479;53.514;9.994;2022-11-20T03:34:32;2.90;99.90
981;DHT22;479;53.514;9.994;2022-11-20T03:36:59;2.90;99.90
981;DHT22;479;53.514;9.994;2022-11-20T03:39:25;2.90;99.90
981;DHT22;479;53.514;9.994;2022-11-20T03:41:52;2.90;99.90
981;DHT22;479;53.514;9.994;2022-11-20T03:44:21;2.80;99.90
981;DHT22;479;53.514;9.994;2022-11-20T03:46:48;2.80;99.90
981;DHT22;479;53.514;9.994;2022-11-20T03:49:16;2.80;99.90
981;DHT22;479;53.514;9.994;2022-11-20T03:51:42;2.90;99.90
981;DHT22;479;53.514;9.994;2022-11-20T03:54:09;2.90;99.90
981;DHT22;479;53.514;9.994;2022-11-20T03:56:37;2.90;99.90
981;DHT22;479;53.514;9.994;2022-11-20T03:59:05;2.80;99.90
981;DHT22;479;53.514;9.994;2022-11-20T04:01:33;2.90;99.90
981;DHT22;479;53.514;9.994;2022-11-20T04:04:00;2.80;99.90
981;DHT22;479;53.514;9.994;2022-11-20T04:06:30;2.80;99.90
981;DHT22;479;53.514;9.994;2022-11-20T04:08:58;2.80;99.90
981;DHT22;479;53.514;9.994;2022-11-20T04:11:26;2.70;99.90
981;DHT22;479;53.514;9.994;2022-11-20T04:13:55;2.80;99.90
981;DHT22;479;53.514;9.994;2022-11-20T04:16:24;2.80;99.90
981;DHT22;479;53.514;9.994;2022-11-20T04:18:52;2.80;99.90
981;DHT22;479;53.514;9.994;2022-11-20T04:21:20;2.80;99.90
981;DHT22;479;53.514;9.994;2022-11-20T04:23:48;2.80;99.90
981;DHT22;479;53.514;9.994;2022-11-20T04:26:15;2.80;99.90
981;DHT22;479;53.514;9.994;2022-11-20T04:28:42;2.70;99.90
981;DHT22;479;53.514;9.994;2022-11-20T04:31:11;2.70;99.90
981;DHT22;479;53.514;9.994;2022-11-20T04:33:39;2.70;99.90
981;DHT22;479;53.514;9.994;2022-11-20T04:36:09;2.80;99.90
981;DHT22;479;53.514;9.994;2022-11-20T04:38:37;2.80;99.90
981;DHT22;479;53.514;9.994;2022-11-20T04:41:06;2.80;99.90
981;DHT22;479;53.514;9.994;2022-11-20T04:43:34;2.70;99.90
981;DHT22;479;53.514;9.994;2022-11-20T04:46:01;2.80;99.90
981;DHT22;479;53.514;9.994;2022-11-20T04:48:29;2.80;99.90
981;DHT22;479;53.514;9.994;2022-11-20T04:50:56;2.90;99.90
981;DHT22;479;53.514;9.994;2022-11-20T04:53:23;2.90;99.90
981;DHT22;479;53.514;9.994;2022-11-20T04:55:50;2.90;99.90
981;DHT22;479;53.514;9.994;2022-11-20T04:58:18;2.90;99.90
981;DHT22;479;53.514;9.994;2022-11-20T05:00:45;2.80;99.90
981;DHT22;479;53.514;9.994;2022-11-20T05:03:12;2.80;99.90
981;DHT22;479;53.514;9.994;2022-11-20T05:05:38;2.80;99.90
981;DHT22;479;53.514;9.994;2022-11-20T05:08:05;2.80;99.90
981;DHT22;479;53.514;9.994;2022-11-20T05:10:32;2.80;99.90
981;DHT22;479;53.514;9.994;2022-11-20T05:12:59;2.80;99.90
981;DHT22;479;53.514;9.994;2022-11-20T05:15:27;2.70;99.90
981;DHT22;479;53.514;9.994;2022-11-20T05:17:53;2.70;99.90
981;DHT22;479;53.514;9.994;2022-11-20T05:20:20;2.70;99.90
981;DHT22;479;53.514;9.994;2022-11-20T05:22:47;2.70;99.90
981;DHT22;479;53.514;9.994;2022-11-20T05:25:14;2.70;99.90
981;DHT22;479;53.514;9.994;2022-11-20T05:27:41;2.70;99.90
981;DHT22;479;53.514;9.994;2022-11-20T05:30:09;2.70;99.90
981;DHT22;479;53.514;9.994;2022-11-20T05:32:37;2.80;99.90
981;DHT22;479;53.514;9.994;2022-11-20T05:35:04;2.80;99.90
981;DHT22;479;53.514;9.994;2022-11-20T05:37:31;2.80;99.90
981;DHT22;479;53.514;9.994;2022-11-20T05:39:58;2.60;99.90
981;DHT22;479;53.514;9.994;2022-11-20T05:42:25;2.60;99.90
981;DHT22;479;53.514;9.994;2022-11-20T05:44:58;2.60;99.90
981;DHT22;479;53.514;9.994;2022-11-20T05:47:25;2.50;99.90
981;DHT22;479;53.514;9.994;2022-11-20T05:49:53;2.50;99.90
981;DHT22;479;53.514;9.994;2022-11-20T05:52:20;2.50;99.90
981;DHT22;479;53.514;9.994;2022-11-20T05:54:47;2.50;99.90
981;DHT22;479;53.514;9.994;2022-11-20T05:57:13;2.50;99.90
981;DHT22;479;53.514;9.994;2022-11-20T05:59:40;2.50;99.90
981;DHT22;479;53.514;9.994;2022-11-20T06:02:07;2.50;99.90
981;DHT22;479;53.514;9.994;2022-11-20T06:04:34;2.50;99.90
981;DHT22;479;53.514;9.994;2022-11-20T06:07:02;2.50;99.90
981;DHT22;479;53.514;9.994;2022-11-20T06:09:30;2.50;99.90
981;DHT22;479;53.514;9.994;2022-11-20T06:11:57;2.40;99.90
981;DHT22;479;53.514;9.994;2022-11-20T06:14:24;2.50;99.90
981;DHT22;479;53.514;9.994;2022-11-20T06:16:51;2.40;99.90
981;DHT22;479;53.514;9.994;2022-11-20T06:19:18;2.40;99.90
981;DHT22;479;53.514;9.994;2022-11-20T06:21:44;2.50;99.90
981;DHT22;479;53.514;9.994;2022-11-20T06:24:12;2.40;99.90
981;DHT22;479;53.514;9.994;2022-11-20T06:26:39;2.40;99.90
981;DHT22;479;53.514;9.994;2022-11-20T06:29:06;2.40;99.90
981;DHT22;479;53.514;9.994;2022-11-20T06:31:33;2.30;99.90
981;DHT22;479;53.514;9.994;2022-11-20T06:34:03;2.30;99.90
981;DHT22;479;53.514;9.994;2022-11-20T06:36:30;2.30;99.90
981;DHT22;479;53.514;9.994;2022-11-20T06:38:56;2.40;99.90
981;DHT22;479;53.514;9.994;2022-11-20T06:41:25;2.40;99.90
981;DHT22;479;53.514;9.994;2022-11-20T06:43:51;2.40;99.90
981;DHT22;479;53.514;9.994;2022-11-20T06:46:20;2.40;99.90
981;DHT22;479;53.514;9.994;2022-11-20T06:48:47;2.40;99.90
981;DHT22;479;53.514;9.994;2022-11-20T06:51:14;2.40;99.90
981;DHT22;479;53.514;9.994;2022-11-20T06:53:41;2.40;99.90
981;DHT22;479;53.514;9.994;2022-11-20T06:56:08;2.30;99.90
981;DHT22;479;53.514;9.994;2022-11-20T06:58:36;2.40;99.90
981;DHT22;479;53.514;9.994;2022-11-20T07:01:05;2.40;99.90
981;DHT22;479;53.514;9.994;2022-11-20T07:03:32;2.30;99.90
981;DHT22;479;53.514;9.994;2022-11-20T07:06:00;2.30;99.90
981;DHT22;479;53.514;9.994;2022-11-20T07:08:27;2.30;99.90
981;DHT22;479;53.514;9.994;2022-11-20T07:10:57;2.30;99.90
981;DHT22;479;53.514;9.994;2022-11-20T07:13:25;2.30;99.90
981;DHT22;479;53.514;9.994;2022-11-20T07:15:53;2.30;99.90
981;DHT22;479;53.514;9.994;2022-11-20T07:18:20;2.20;99.90
981;DHT22;479;53.514;9.994;2022-11-20T07:20:47;2.20;99.90
981;DHT22;479;53.514;9.994;2022-11-20T07:23:14;2.30;99.90
981;DHT22;479;53.514;9.994;2022-11-20T07:25:40;2.30;99.90
981;DHT22;479;53.514;9.994;2022-11-20T07:28:07;2.30;99.90
981;DHT22;479;53.514;9.994;2022-11-20T07:30:36;2.20;99.90
981;DHT22;479;53.514;9.994;2022-11-20T07:33:04;2.30;99.90
981;DHT22;479;53.514;9.994;2022-11-20T07:35:31;2.30;99.90
981;DHT22;479;53.514;9.994;2022-11-20T07:37:58;2.30;99.90
981;DHT22;479;53.514;9.994;2022-11-20T07:40:25;2.50;99.90
981;DHT22;479;53.514;9.994;2022-11-20T07:42:53;2.60;99.90
981;DHT22;479;53.514;9.994;2022-11-20T07:45:23;3.10;99.90
981;DHT22;479;53.514;9.994;2022-11-20T07:47:50;3.10;99.90
981;DHT22;479;53.514;9.994;2022-11-20T07:50:19;3.00;99.90
981;DHT22;479;53.514;9.994;2022-11-20T07:52:46;3.00;99.90
981;DHT22;479;53.514;9.994;2022-11-20T07:55:13;3.10;99.90
981;DHT22;479;53.514;9.994;2022-11-20T07:57:40;3.40;99.90
981;DHT22;479;53.514;9.994;2022-11-20T08:00:08;3.60;99.90
981;DHT22;479;53.514;9.994;2022-11-20T08:02:39;3.60;99.90
981;DHT22;479;53.514;9.994;2022-11-20T08:05:07;3.60;99.90
981;DHT22;479;53.514;9.994;2022-11-20T08:07:39;3.70;99.90
981;DHT22;479;53.514;9.994;2022-11-20T08:10:08;3.60;99.90
981;DHT22;479;53.514;9.994;2022-11-20T08:12:35;3.60;99.90
981;DHT22;479;53.514;9.994;2022-11-20T08:15:20;3.70;99.90
981;DHT22;479;53.514;9.994;2022-11-20T08:17:47;4.00;99.90
981;DHT22;479;53.514;9.994;2022-11-20T08:20:14;3.90;99.90
981;DHT22;479;53.514;9.994;2022-11-20T08:22:42;3.30;99.90
981;DHT22;479;53.514;9.994;2022-11-20T08:25:09;3.30;99.90
981;DHT22;479;53.514;9.994;2022-11-20T08:27:36;3.80;99.90
981;DHT22;479;53.514;9.994;2022-11-20T08:30:04;3.70;99.90
981;DHT22;479;53.514;9.994;2022-11-20T08:32:31;3.50;99.90
981;DHT22;479;53.514;9.994;2022-11-20T08:35:00;3.50;99.90
981;DHT22;479;53.514;9.994;2022-11-20T08:37:27;3.70;99.90
981;DHT22;479;53.514;9.994;2022-11-20T08:39:55;3.90;99.90
981;DHT22;479;53.514;9.994;2022-11-20T08:42:22;4.10;99.90
981;DHT22;479;53.514;9.994;2022-11-20T08:44:49;4.20;99.90
981;DHT22;479;53.514;9.994;2022-11-20T08:47:16;3.90;99.90
981;DHT22;479;53.514;9.994;2022-11-20T08:49:43;3.80;99.90
981;DHT22;479;53.514;9.994;2022-11-20T08:52:09;4.00;99.90
981;DHT22;479;53.514;9.994;2022-11-20T08:54:36;4.10;99.90
981;DHT22;479;53.514;9.994;2022-11-20T08:57:04;3.70;99.90
981;DHT22;479;53.514;9.994;2022-11-20T08:59:31;3.50;99.90
981;DHT22;479;53.514;9.994;2022-11-20T09:01:58;3.40;99.90
981;DHT22;479;53.514;9.994;2022-11-20T09:04:25;3.30;99.90
981;DHT22;479;53.514;9.994;2022-11-20T09:06:52;3.20;99.90
981;DHT22;479;53.514;9.994;2022-11-20T09:09:20;3.10;99.90
981;DHT22;479;53.514;9.994;2022-11-20T09:11:47;3.30;99.90
981;DHT22;479;53.514;9.994;2022-11-20T09:14:16;3.40;99.90
981;DHT22;479;53.514;9.994;2022-11-20T09:16:44;3.50;99.90
981;DHT22;479;53.514;9.994;2022-11-20T09:19:11;3.30;99.90
981;DHT22;479;53.514;9.994;2022-11-20T09:21:38;3.30;99.90
981;DHT22;479;53.514;9.994;2022-11-20T09:24:06;3.40;99.90
981;DHT22;479;53.514;9.994;2022-11-20T09:26:32;3.50;99.90
981;DHT22;479;53.514;9.994;2022-11-20T09:28:59;3.50;99.90
981;DHT22;479;53.514;9.994;2022-11-20T09:31:27;3.60;99.90
981;DHT22;479;53.514;9.994;2022-11-20T09:33:54;3.60;99.90
981;DHT22;479;53.514;9.994;2022-11-20T09:36:21;3.60;99.90
981;DHT22;479;53.514;9.994;2022-11-20T09:38:48;3.70;99.90
981;DHT22;479;53.514;9.994;2022-11-20T09:41:34;3.60;99.90
981;DHT22;479;53.514;9.994;2022-11-20T09:44:10;3.60;99.90
981;DHT22;479;53.514;9.994;2022-11-20T09:46:47;3.70;99.90
981;DHT22;479;53.514;9.994;2022-11-20T09:49:25;3.60;99.90
981;DHT22;479;53.514;9.994;2022-11-20T09:51:58;3.60;99.90
981;DHT22;479;53.514;9.994;2022-11-20T09:54:29;3.50;99.90
981;DHT22;479;53.514;9.994;2022-11-20T09:56:59;3.50;99.90
981;DHT22;479;53.514;9.994;2022-11-20T09:59:34;3.50;99.90
981;DHT22;479;53.514;9.994;2022-11-20T10:02:15;3.50;99.90
981;DHT22;479;53.514;9.994;2022-11-20T10:04:46;3.70;99.90
981;DHT22;479;53.514;9.994;2022-11-20T10:07:17;3.70;99.90
981;DHT22;479;53.514;9.994;2022-11-20T10:09:51;3.70;99.90
981;DHT22;479;53.514;9.994;2022-11-20T10:12:25;3.70;99.90
981;DHT22;479;53.514;9.994;2022-11-20T10:15:02;3.70;99.90
981;DHT22;479;53.514;9.994;2022-11-20T10:17:49;3.60;99.90
981;DHT22;479;53.514;9.994;2022-11-20T10:20:27;3.70;99.90
981;DHT22;479;53.514;9.994;2022-11-20T10:23:12;3.60;99.90
981;DHT22;479;53.514;9.994;2022-11-20T10:25:42;3.70;99.90
981;DHT22;479;53.514;9.994;2022-11-20T10:28:40;4.00;99.90
981;DHT22;479;53.514;9.994;2022-11-20T10:31:21;4.80;99.90
981;DHT22;479;53.514;9.994;2022-11-20T10:33:54;5.40;99.90
981;DHT22;479;53.514;9.994;2022-11-20T10:36:25;5.50;99.90
981;DHT22;479;53.514;9.994;2022-11-20T10:38:56;5.00;99.90
981;DHT22;479;53.514;9.994;2022-11-20T10:41:27;5.20;99.90
981;DHT22;479;53.514;9.994;2022-11-20T10:44:02;5.40;99.90
981;DHT22;479;53.514;9.994;2022-11-20T10:46:35;5.10;99.90
981;DHT22;479;53.514;9.994;2022-11-20T10:49:12;5.10;99.90
981;DHT22;479;53.514;9.994;2022-11-20T10:51:49;5.00;99.90
981;DHT22;479;53.514;9.994;2022-11-20T10:54:22;5.00;99.90
981;DHT22;479;53.514;9.994;2022-11-20T10:56:55;4.50;99.90
981;DHT22;479;53.514;9.994;2022-11-20T10:59:45;4.50;99.90
981;DHT22;479;53.514;9.994;2022-11-20T11:02:19;4.70;99.90
981;DHT22;479;53.514;9.994;2022-11-20T11:04:49;4.60;99.90
981;DHT22;479;53.514;9.994;2022-11-20T11:07:20;4.50;99.90
981;DHT22;479;53.514;9.994;2022-11-20T11:09:49;4.70;99.90
981;DHT22;479;53.514;9.994;2022-11-20T11:12:16;4.70;99.90
981;DHT22;479;53.514;9.994;2022-11-20T11:14:46;4.70;99.90
981;DHT22;479;53.514;9.994;2022-11-20T11:17:25;4.50;99.90
981;DHT22;479;53.514;9.994;2022-11-20T11:20:03;4.30;99.90
981;DHT22;479;53.514;9.994;2022-11-20T11:22:32;4.30;99.90
981;DHT22;479;53.514;9.994;2022-11-20T11:24:59;4.10;99.90
981;DHT22;479;53.514;9.994;2022-11-20T11:27:26;4.20;99.90
981;DHT22;479;53.514;9.994;2022-11-20T11:30:10;4.50;99.90
981;DHT22;479;53.514;9.994;2022-11-20T11:32:37;4.80;99.90
981;DHT22;479;53.514;9.994;2022-11-20T11:35:18;4.80;99.90
981;DHT22;479;53.514;9.994;2022-11-20T11:37:46;5.10;99.90
981;DHT22;479;53.514;9.994;2022-11-20T11:40:14;4.90;99.90
981;DHT22;479;53.514;9.994;2022-11-20T11:42:42;4.50;99.90
981;DHT22;479;53.514;9.994;2022-11-20T11:45:14;4.50;99.90
981;DHT22;479;53.514;9.994;2022-11-20T11:47:45;4.30;99.90
981;DHT22;479;53.514;9.994;2022-11-20T11:50:17;4.70;99.90
981;DHT22;479;53.514;9.994;2022-11-20T11:52:48;4.70;99.90
981;DHT22;479;53.514;9.994;2022-11-20T11:55:22;4.70;99.90
981;DHT22;479;53.514;9.994;2022-11-20T11:57:54;4.60;99.90
981;DHT22;479;53.514;9.994;2022-11-20T12:00:24;4.70;99.90
981;DHT22;479;53.514;9.994;2022-11-20T12:02:57;4.60;99.90
981;DHT22;479;53.514;9.994;2022-11-20T12:05:34;4.70;99.90
981;DHT22;479;53.514;9.994;2022-11-20T12:08:05;4.70;99.90
981;DHT22;479;53.514;9.994;2022-11-20T12:10:44;4.40;99.90
981;DHT22;479;53.514;9.994;2022-11-20T12:13:20;4.40;99.90
981;DHT22;479;53.514;9.994;2022-11-20T12:15:48;4.60;99.90
981;DHT22;479;53.514;9.994;2022-11-20T12:18:17;4.80;99.90
981;DHT22;479;53.514;9.994;2022-11-20T12:20:56;4.60;99.90
981;DHT22;479;53.514;9.994;2022-11-20T12:23:35;4.40;99.90
981;DHT22;479;53.514;9.994;2022-11-20T12:26:16;4.80;99.90
981;DHT22;479;53.514;9.994;2022-11-20T12:28:56;4.80;99.90
981;DHT22;479;53.514;9.994;2022-11-20T12:31:42;5.20;99.90
981;DHT22;479;53.514;9.994;2022-11-20T12:34:30;5.20;99.90
981;DHT22;479;53.514;9.994;2022-11-20T12:37:06;4.80;99.90
981;DHT22;479;53.514;9.994;2022-11-20T12:39:41;4.80;99.90
981;DHT22;479;53.514;9.994;2022-11-20T12:42:16;5.00;99.90
981;DHT22;479;53.514;9.994;2022-11-20T12:45:23;5.30;99.90
981;DHT22;479;53.514;9.994;2022-11-20T12:48:09;5.30;99.90
981;DHT22;479;53.514;9.994;2022-11-20T12:50:48;5.00;99.90
981;DHT22;479;53.514;9.994;2022-11-20T12:53:25;4.90;99.90
981;DHT22;479;53.514;9.994;2022-11-20T12:55:58;4.80;99.90
981;DHT22;479;53.514;9.994;2022-11-20T12:58:31;4.70;99.90
981;DHT22;479;53.514;9.994;2022-11-20T13:01:08;4.50;99.90
981;DHT22;479;53.514;9.994;2022-11-20T13:04:07;4.40;99.90
981;DHT22;479;53.514;9.994;2022-11-20T13:06:35;4.30;99.90
981;DHT22;479;53.514;9.994;2022-11-20T13:09:08;4.30;99.90
981;DHT22;479;53.514;9.994;2022-11-20T13:11:43;4.60;99.90
981;DHT22;479;53.514;9.994;2022-11-20T13:14:24;4.50;99.90
981;DHT22;479;53.514;9.994;2022-11-20T13:16:58;4.40;99.90
981;DHT22;479;53.514;9.994;2022-11-20T13:19:26;4.30;99.90
981;DHT22;479;53.514;9.994;2022-11-20T13:21:54;4.40;99.90
981;DHT22;479;53.514;9.994;2022-11-20T13:24:25;4.70;99.90
981;DHT22;479;53.514;9.994;2022-11-20T13:27:01;4.60;99.90
981;DHT22;479;53.514;9.994;2022-11-20T13:29:28;4.80;99.90
981;DHT22;479;53.514;9.994;2022-11-20T13:32:06;4.80;99.90
981;DHT22;479;53.514;9.994;2022-11-20T13:34:35;4.70;99.90
981;DHT22;479;53.514;9.994;2022-11-20T13:37:02;4.30;99.90
981;DHT22;479;53.514;9.994;2022-11-20T13:39:33;4.30;99.90
981;DHT22;479;53.514;9.994;2022-11-20T13:42:01;4.70;99.90
981;DHT22;479;53.514;9.994;2022-11-20T13:44:33;4.80;99.90
981;DHT22;479;53.514;9.994;2022-11-20T13:47:03;4.90;99.90
981;DHT22;479;53.514;9.994;2022-11-20T13:49:32;4.60;99.90
981;DHT22;479;53.514;9.994;2022-11-20T13:52:15;4.50;99.90
981;DHT22;479;53.514;9.994;2022-11-20T13:55:05;4.80;99.90
981;DHT22;479;53.514;9.994;2022-11-20T13:58:15;4.60;99.90
981;DHT22;479;53.514;9.994;2022-11-20T14:00:48;4.40;99.90
981;DHT22;479;53.514;9.994;2022-11-20T14:03:18;4.30;99.90
981;DHT22;479;53.514;9.994;2022-11-20T14:05:50;4.30;99.90
981;DHT22;479;53.514;9.994;2022-11-20T14:08:25;4.40;99.90
981;DHT22;479;53.514;9.994;2022-11-20T14:11:04;4.40;99.90
981;DHT22;479;53.514;9.994;2022-11-20T14:13:31;4.30;99.90
981;DHT22;479;53.514;9.994;2022-11-20T14:15:58;4.30;99.90
981;DHT22;479;53.514;9.994;2022-11-20T14:18:26;4.40;99.90
981;DHT22;479;53.514;9.994;2022-11-20T14:20:53;4.40;99.90
981;DHT22;479;53.514;9.994;2022-11-20T14:23:25;4.30;99.90
981;DHT22;479;53.514;9.994;2022-11-20T14:25:52;4.30;99.90
981;DHT22;479;53.514;9.994;2022-11-20T14:28:25;4.30;99.90
981;DHT22;479;53.514;9.994;2022-11-20T14:30:53;4.40;99.90
981;DHT22;479;53.514;9.994;2022-11-20T14:33:21;4.50;99.90
981;DHT22;479;53.514;9.994;2022-11-20T14:35:52;4.40;99.90
981;DHT22;479;53.514;9.994;2022-11-20T14:38:22;4.40;99.90
981;DHT22;479;53.514;9.994;2022-11-20T14:40:50;4.40;99.90
981;DHT22;479;53.514;9.994;2022-11-20T14:43:21;4.30;99.90
981;DHT22;479;53.514;9.994;2022-11-20T14:45:54;4.30;99.90
981;DHT22;479;53.514;9.994;2022-11-20T14:48:25;4.30;99.90
981;DHT22;479;53.514;9.994;2022-11-20T14:50:54;4.10;99.90
981;DHT22;479;53.514;9.994;2022-11-20T14:53:22;4.20;99.90
981;DHT22;479;53.514;9.994;2022-11-20T14:55:56;4.10;99.90
981;DHT22;479;53.514;9.994;2022-11-20T14:58:26;4.10;99.90
981;DHT22;479;53.514;9.994;2022-11-20T15:00:55;4.10;99.90
981;DHT22;479;53.514;9.994;2022-11-20T15:03:22;4.00;99.90
981;DHT22;479;53.514;9.994;2022-11-20T15:05:50;4.00;99.90
981;DHT22;479;53.514;9.994;2022-11-20T15:08:18;4.00;99.90
981;DHT22;479;53.514;9.994;2022-11-20T15:10:46;4.10;99.90
981;DHT22;479;53.514;9.994;2022-11-20T15:13:17;4.10;99.90
981;DHT22;479;53.514;9.994;2022-11-20T15:15:49;4.10;99.90
981;DHT22;479;53.514;9.994;2022-11-20T15:18:19;4.20;99.90
981;DHT22;479;53.514;9.994;2022-11-20T15:20:47;4.20;99.90
981;DHT22;479;53.514;9.994;2022-11-20T15:23:15;4.10;99.90
981;DHT22;479;53.514;9.994;2022-11-20T15:25:44;4.10;99.90
981;DHT22;479;53.514;9.994;2022-11-20T15:28:16;4.10;99.90
981;DHT22;479;53.514;9.994;2022-11-20T15:30:44;4.10;99.90
981;DHT22;479;53.514;9.994;2022-11-20T15:33:13;4.00;99.90
981;DHT22;479;53.514;9.994;2022-11-20T15:35:39;4.00;99.90
981;DHT22;479;53.514;9.994;2022-11-20T15:38:06;4.00;99.90
981;DHT22;479;53.514;9.994;2022-11-20T15:40:33;4.00;99.90
981;DHT22;479;53.514;9.994;2022-11-20T15:43:00;4.00;99.90
981;DHT22;479;53.514;9.994;2022-11-20T15:45:36;4.00;99.90
981;DHT22;479;53.514;9.994;2022-11-20T15:48:04;3.90;99.90
981;DHT22;479;53.514;9.994;2022-11-20T15:50:37;3.80;99.90
981;DHT22;479;53.514;9.994;2022-11-20T15:53:05;3.80;99.90
981;DHT22;479;53.514;9.994;2022-11-20T15:55:32;3.70;99.90
981;DHT22;479;53.514;9.994;2022-11-20T15:57:59;3.60;99.90
981;DHT22;479;53.514;9.994;2022-11-20T16:00:26;3.60;99.90
981;DHT22;479;53.514;9.994;2022-11-20T16:02:52;3.70;99.90
981;DHT22;479;53.514;9.994;2022-11-20T16:05:19;3.70;99.90
981;DHT22;479;53.514;9.994;2022-11-20T16:07:52;3.80;99.90
981;DHT22;479;53.514;9.994;2022-11-20T16:10:18;3.70;99.90
981;DHT22;479;53.514;9.994;2022-11-20T16:12:45;3.80;99.90
981;DHT22;479;53.514;9.994;2022-11-20T16:15:30;3.80;99.90
981;DHT22;479;53.514;9.994;2022-11-20T16:18:14;3.70;99.90
981;DHT22;479;53.514;9.994;2022-11-20T16:20:41;3.70;99.90
981;DHT22;479;53.514;9.994;2022-11-20T16:23:09;3.70;99.90
981;DHT22;479;53.514;9.994;2022-11-20T16:25:36;3.70;99.90
981;DHT22;479;53.514;9.994;2022-11-20T16:28:03;3.70;99.90
981;DHT22;479;53.514;9.994;2022-11-20T16:30:31;3.70;99.90
981;DHT22;479;53.514;9.994;2022-11-20T16:32:57;3.70;99.90
981;DHT22;479;53.514;9.994;2022-11-20T16:35:25;3.60;99.90
981;DHT22;479;53.514;9.994;2022-11-20T16:37:53;3.60;99.90
981;DHT22;479;53.514;9.994;2022-11-20T16:40:21;3.70;99.90
981;DHT22;479;53.514;9.994;2022-11-20T16:42:48;3.70;99.90
981;DHT22;479;53.514;9.994;2022-11-20T16:45:15;3.70;99.90
981;DHT22;479;53.514;9.994;2022-11-20T16:47:42;3.70;99.90
981;DHT22;479;53.514;9.994;2022-11-20T16:50:09;3.60;99.90
981;DHT22;479;53.514;9.994;2022-11-20T16:52:36;3.70;99.90
981;DHT22;479;53.514;9.994;2022-11-20T16:55:04;3.70;99.90
981;DHT22;479;53.514;9.994;2022-11-20T16:57:32;3.80;99.90
981;DHT22;479;53.514;9.994;2022-11-20T16:59:59;3.70;99.90
981;DHT22;479;53.514;9.994;2022-11-20T17:02:27;3.60;99.90
981;DHT22;479;53.514;9.994;2022-11-20T17:04:53;3.50;99.90
981;DHT22;479;53.514;9.994;2022-11-20T17:07:20;3.50;99.90
981;DHT22;479;53.514;9.994;2022-11-20T17:09:47;3.50;99.90